Time;durP1;ratioP1;P1;durP2;ratioP2;P2;SDS_P1;SDS_P2;PMS_P1;PMS_P2;Temp;Humidity;BMP_temperature;BMP_pressure;BME280_temperature;BME280_humidity;BME280_pressure;Samples;Min_cycle;Max_cycle;Signal;HPM_P1;HPM_P2
2023/07/29 00:00:17;;;;;;;0.60;0.60;;;10.10;99.90;;;;;;5134082;27;20201;-69
2023/07/29 00:02:44;;;;;;;0.50;0.50;;;10.10;99.90;;;;;;5133855;27;20215;-69
2023/07/29 00:05:09;;;;;;;0.60;0.60;;;10.10;99.90;;;;;;5134365;27;20645;-69
2023/07/29 00:07:35;;;;;;;0.60;0.60;;;10.10;99.90;;;;;;5115859;27;20198;-68
2023/07/29 00:10:03;;;;;;;0.50;0.50;;;10.10;99.90;;;;;;5134081;27;20197;-68
2023/07/29 00:12:29;;;;;;;0.60;0.60;;;10.20;99.90;;;;;;5133847;27;20194;-68
2023/07/29 00:14:55;;;;;;;0.50;0.50;;;10.20;99.90;;;;;;5134167;27;20187;-68
2023/07/29 00:17:21;;;;;;;0.55;0.55;;;10.20;99.90;;;;;;5133654;27;20194;-68
2023/07/29 00:19:47;;;;;;;0.50;0.50;;;10.20;99.90;;;;;;5133703;27;20217;-69
2023/07/29 00:22:12;;;;;;;0.50;0.50;;;10.20;99.90;;;;;;5133796;27;20243;-68
2023/07/29 00:24:40;;;;;;;0.60;0.60;;;10.10;99.90;;;;;;5133433;27;20214;-68
2023/07/29 00:27:05;;;;;;;0.50;0.50;;;10.10;99.90;;;;;;5133765;27;20294;-69
2023/07/29 00:29:31;;;;;;;0.50;0.50;;;10.00;99.90;;;;;;5115034;27;20259;-69
2023/07/29 00:31:57;;;;;;;0.52;0.52;;;9.90;99.90;;;;;;5115176;27;20201;-69
2023/07/29 00:34:23;;;;;;;0.50;0.50;;;9.90;99.90;;;;;;5114388;27;20194;-69
2023/07/29 00:36:48;;;;;;;0.70;0.70;;;10.00;99.90;;;;;;5114976;27;20305;-70
2023/07/29 00:39:14;;;;;;;0.57;0.57;;;10.00;99.90;;;;;;5133321;27;20705;-69
2023/07/29 00:41:40;;;;;;;0.50;0.50;;;10.00;99.90;;;;;;5133191;27;20222;-68
2023/07/29 00:44:06;;;;;;;0.50;0.50;;;10.00;99.90;;;;;;5133485;27;20210;-69
2023/07/29 00:46:35;;;;;;;0.52;0.52;;;10.10;99.90;;;;;;5132730;27;20202;-70
2023/07/29 00:49:02;;;;;;;0.60;0.60;;;10.00;99.90;;;;;;5148758;27;20196;-69
2023/07/29 00:51:27;;;;;;;0.50;0.50;;;10.00;99.90;;;;;;5175130;27;20189;-68
2023/07/29 00:53:53;;;;;;;0.82;0.82;;;9.90;99.90;;;;;;5174419;27;20189;-69
2023/07/29 00:56:19;;;;;;;0.50;0.50;;;9.90;99.90;;;;;;5174129;27;20569;-67
2023/07/29 00:58:45;;;;;;;0.70;0.70;;;9.90;99.90;;;;;;5174751;27;20193;-68
2023/07/29 01:01:11;;;;;;;0.60;0.60;;;9.90;99.90;;;;;;5174929;27;20280;-70
2023/07/29 01:03:37;;;;;;;0.50;0.50;;;9.90;99.90;;;;;;5152327;22;20231;-67
2023/07/29 01:06:47;;;;;;;0.63;0.63;;;9.80;99.90;;;;;;5089900;28;20658;-67
2023/07/29 01:12:25;;;;;;;0.60;0.60;;;9.80;99.90;;;;;;5086768;28;20229;-72
2023/07/29 01:15:03;;;;;;;0.60;0.60;;;9.80;99.90;;;;;;5090650;28;20219;-72
2023/07/29 01:17:35;;;;;;;0.60;0.60;;;9.80;99.90;;;;;;5073048;28;20291;-72
2023/07/29 01:20:05;;;;;;;1.38;0.88;;;9.70;99.90;;;;;;5091296;28;20192;-71
2023/07/29 01:22:33;;;;;;;0.60;0.60;;;9.70;99.90;;;;;;5090886;28;20184;-71
2023/07/29 01:24:59;;;;;;;0.60;0.60;;;9.70;99.90;;;;;;5091398;28;20234;-71
2023/07/29 01:27:26;;;;;;;0.60;0.60;;;9.60;99.90;;;;;;5090934;28;20534;-70
2023/07/29 01:29:55;;;;;;;0.50;0.50;;;9.60;99.90;;;;;;5091048;28;20180;-71
2023/07/29 01:32:34;;;;;;;0.60;0.60;;;9.50;99.90;;;;;;5090941;28;20190;-71
2023/07/29 01:35:10;;;;;;;0.70;0.70;;;9.50;99.90;;;;;;5072944;28;20196;-72
2023/07/29 01:37:39;;;;;;;0.50;0.50;;;9.40;99.90;;;;;;5072738;28;20584;-71
2023/07/29 01:40:07;;;;;;;0.60;0.60;;;9.40;99.90;;;;;;5072833;28;20188;-71
2023/07/29 01:42:35;;;;;;;0.60;0.60;;;9.40;99.90;;;;;;5090315;28;20341;-71
2023/07/29 01:45:01;;;;;;;0.60;0.60;;;9.30;99.90;;;;;;5072738;28;20291;-71
2023/07/29 01:47:27;;;;;;;0.60;0.60;;;9.30;99.90;;;;;;5090663;28;20203;-70
2023/07/29 01:49:53;;;;;;;0.50;0.50;;;9.30;99.90;;;;;;5090528;28;20590;-70
2023/07/29 01:52:18;;;;;;;1.35;1.25;;;9.30;99.90;;;;;;5090620;28;20595;-70
2023/07/29 01:54:44;;;;;;;0.60;0.60;;;9.30;99.90;;;;;;5089562;28;20662;-71
2023/07/29 01:57:10;;;;;;;0.60;0.60;;;9.30;99.90;;;;;;5090585;28;20320;-71
2023/07/29 01:59:36;;;;;;;0.60;0.60;;;9.20;99.90;;;;;;5089247;28;20292;-72
2023/07/29 02:02:01;;;;;;;0.60;0.60;;;9.20;99.90;;;;;;5090461;28;20203;-72
2023/07/29 02:04:27;;;;;;;0.60;0.60;;;9.20;99.90;;;;;;5090346;28;20207;-73
2023/07/29 02:06:54;;;;;;;0.60;0.60;;;9.20;99.90;;;;;;5090627;28;20192;-71
2023/07/29 02:09:20;;;;;;;0.60;0.60;;;9.10;99.90;;;;;;5090365;28;20187;-73
2023/07/29 02:11:46;;;;;;;0.70;0.70;;;9.10;99.90;;;;;;5090372;28;20626;-71
2023/07/29 02:14:12;;;;;;;0.60;0.60;;;9.20;99.90;;;;;;5090483;28;20203;-73
2023/07/29 02:16:38;;;;;;;0.60;0.60;;;9.20;99.90;;;;;;5090632;28;20196;-71
2023/07/29 02:19:04;;;;;;;0.88;0.88;;;9.20;99.90;;;;;;5090930;28;20192;-71
2023/07/29 02:21:30;;;;;;;0.60;0.60;;;9.20;99.90;;;;;;5090154;28;20723;-71
2023/07/29 02:23:56;;;;;;;0.60;0.60;;;9.20;99.90;;;;;;5072318;28;20662;-72
2023/07/29 02:26:22;;;;;;;0.50;0.50;;;9.20;99.90;;;;;;5092675;28;20203;-72
2023/07/29 02:28:48;;;;;;;0.60;0.60;;;9.10;99.90;;;;;;5094744;28;20271;-71
2023/07/29 02:31:24;;;;;;;17.05;4.55;;;9.00;99.90;;;;;;5093490;28;20345;-72
2023/07/29 02:33:51;;;;;;;0.60;0.60;;;9.00;99.90;;;;;;5076266;28;20604;-71
2023/07/29 02:36:17;;;;;;;0.68;0.68;;;9.00;99.90;;;;;;5094475;28;20196;-72
2023/07/29 02:38:46;;;;;;;0.60;0.60;;;9.00;99.90;;;;;;5094130;28;20199;-71
2023/07/29 02:41:12;;;;;;;0.60;0.60;;;9.00;99.90;;;;;;5075997;28;20208;-71
2023/07/29 02:43:39;;;;;;;0.60;0.60;;;9.00;99.90;;;;;;5093877;28;20205;-71
2023/07/29 02:46:04;;;;;;;0.60;0.60;;;8.90;99.90;;;;;;5094232;28;20663;-71
2023/07/29 02:48:30;;;;;;;0.60;0.60;;;8.90;99.90;;;;;;5093893;28;20188;-70
2023/07/29 02:50:56;;;;;;;0.60;0.60;;;8.90;99.90;;;;;;5094108;28;20198;-71
2023/07/29 02:53:22;;;;;;;0.65;0.65;;;8.90;99.90;;;;;;5094524;28;20184;-72
2023/07/29 02:55:49;;;;;;;0.63;0.63;;;8.90;99.90;;;;;;5094227;28;20215;-72
2023/07/29 02:58:14;;;;;;;0.60;0.60;;;8.90;99.90;;;;;;5093929;28;20200;-71
2023/07/29 03:00:41;;;;;;;0.70;0.70;;;8.90;99.90;;;;;;5094050;28;20282;-71
2023/07/29 03:03:10;;;;;;;0.70;0.70;;;9.00;99.90;;;;;;5075726;28;20286;-71
2023/07/29 03:05:37;;;;;;;0.60;0.60;;;9.00;99.90;;;;;;5093802;28;20229;-71
2023/07/29 03:08:03;;;;;;;0.60;0.60;;;8.90;99.90;;;;;;5075825;28;20558;-71
2023/07/29 03:10:28;;;;;;;0.60;0.60;;;9.00;99.90;;;;;;5105958;28;20224;-71
2023/07/29 03:12:57;;;;;;;0.60;0.60;;;9.00;99.90;;;;;;5075495;28;20195;-71
2023/07/29 03:15:27;;;;;;;0.60;0.60;;;9.00;99.90;;;;;;5081459;28;20755;-71
2023/07/29 03:17:52;;;;;;;0.60;0.60;;;9.00;99.90;;;;;;5075706;28;20192;-71
2023/07/29 03:20:19;;;;;;;0.60;0.60;;;9.00;99.90;;;;;;5093521;28;20199;-71
2023/07/29 03:22:45;;;;;;;0.60;0.60;;;9.00;99.90;;;;;;5093577;28;20196;-72
2023/07/29 03:25:11;;;;;;;0.60;0.60;;;9.10;99.90;;;;;;5093640;28;20192;-70
2023/07/29 03:27:37;;;;;;;0.60;0.60;;;9.10;99.90;;;;;;5093318;28;20219;-71
2023/07/29 03:30:07;;;;;;;0.60;0.60;;;9.10;99.90;;;;;;5093429;28;20195;-71
2023/07/29 03:32:33;;;;;;;0.60;0.60;;;9.20;99.90;;;;;;5074758;28;20570;-71
2023/07/29 03:34:59;;;;;;;0.70;0.70;;;9.20;99.90;;;;;;5093018;28;20238;-73
2023/07/29 03:37:24;;;;;;;0.60;0.60;;;9.20;99.90;;;;;;5074962;28;20221;-70
2023/07/29 03:39:59;;;;;;;0.60;0.60;;;9.30;99.90;;;;;;5093237;28;20196;-69
2023/07/29 03:42:25;;;;;;;0.60;0.60;;;9.30;99.90;;;;;;5092644;28;20246;-71
2023/07/29 03:44:51;;;;;;;0.65;0.65;;;9.40;99.90;;;;;;5093238;28;20261;-70
2023/07/29 03:47:16;;;;;;;0.60;0.60;;;9.50;99.90;;;;;;5092896;28;20721;-70
2023/07/29 03:49:42;;;;;;;0.55;0.55;;;9.60;99.90;;;;;;5084314;28;20657;-70
2023/07/29 03:52:08;;;;;;;0.68;0.68;;;9.60;99.90;;;;;;5091442;28;20269;-70
2023/07/29 03:54:39;;;;;;;0.60;0.60;;;9.70;99.90;;;;;;5092544;28;20280;-70
2023/07/29 03:57:05;;;;;;;0.50;0.50;;;9.80;99.90;;;;;;5074539;28;20612;-70
2023/07/29 03:59:31;;;;;;;0.60;0.60;;;9.80;99.90;;;;;;5091271;28;20203;-70
2023/07/29 04:01:56;;;;;;;2.05;0.82;;;9.90;99.90;;;;;;5092662;28;20226;-71
2023/07/29 04:04:22;;;;;;;0.60;0.60;;;10.00;99.90;;;;;;5092237;28;20493;-71
2023/07/29 04:06:48;;;;;;;0.57;0.57;;;10.10;99.90;;;;;;5092597;28;20720;-70
2023/07/29 04:09:14;;;;;;;0.60;0.60;;;10.20;99.90;;;;;;5092436;28;20263;-70
2023/07/29 04:11:39;;;;;;;0.60;0.60;;;10.20;99.90;;;;;;5092273;28;20224;-70
2023/07/29 04:14:05;;;;;;;0.50;0.50;;;10.30;99.90;;;;;;5074131;28;20250;-70
2023/07/29 04:16:31;;;;;;;0.60;0.60;;;10.40;99.90;;;;;;5074085;28;20246;-70
2023/07/29 04:18:59;;;;;;;0.60;0.60;;;10.50;99.90;;;;;;5092398;28;20245;-70
2023/07/29 04:21:24;;;;;;;0.50;0.50;;;10.60;99.90;;;;;;5092012;28;20581;-70
2023/07/29 04:23:53;;;;;;;0.52;0.52;;;10.70;99.90;;;;;;5092508;28;20225;-71
2023/07/29 04:26:19;;;;;;;0.50;0.50;;;10.80;99.90;;;;;;5092294;28;20677;-71
2023/07/29 04:28:44;;;;;;;0.60;0.60;;;10.90;99.90;;;;;;5092017;28;20192;-70
2023/07/29 04:31:15;;;;;;;0.50;0.50;;;11.00;99.90;;;;;;5091967;28;20188;-71
2023/07/29 04:33:40;;;;;;;0.50;0.50;;;11.10;99.90;;;;;;5091987;28;20651;-71
2023/07/29 04:36:06;;;;;;;1.10;1.00;;;11.20;99.90;;;;;;5073771;28;20203;-71
2023/07/29 04:38:33;;;;;;;0.70;0.70;;;11.30;99.90;;;;;;5092074;28;20200;-69
2023/07/29 04:41:02;;;;;;;0.70;0.70;;;11.50;99.90;;;;;;5073658;28;20643;-73
2023/07/29 04:43:32;;;;;;;0.50;0.50;;;11.60;99.90;;;;;;5091462;28;20206;-73
2023/07/29 04:45:58;;;;;;;0.68;0.68;;;11.70;99.90;;;;;;5091748;28;20199;-73
2023/07/29 04:48:24;;;;;;;0.50;0.50;;;11.80;99.90;;;;;;5072205;28;20297;-74
2023/07/29 04:50:50;;;;;;;0.60;0.60;;;11.90;99.90;;;;;;5076100;28;20670;-73
2023/07/29 04:53:15;;;;;;;0.50;0.50;;;12.00;99.90;;;;;;5073656;28;20200;-74
2023/07/29 04:55:44;;;;;;;0.75;0.75;;;12.10;99.90;;;;;;5091593;28;20681;-73
2023/07/29 04:58:10;;;;;;;0.70;0.70;;;12.20;99.90;;;;;;5073196;28;20236;-73
2023/07/29 05:00:36;;;;;;;0.55;0.55;;;12.30;99.90;;;;;;5073133;28;20270;-73
2023/07/29 05:03:01;;;;;;;0.50;0.50;;;12.40;99.90;;;;;;5073142;28;20211;-73
2023/07/29 05:05:27;;;;;;;0.40;0.40;;;12.50;99.90;;;;;;5091096;28;20192;-73
2023/07/29 05:07:53;;;;;;;0.45;0.45;;;12.60;99.90;;;;;;5091677;28;20700;-73
2023/07/29 05:10:19;;;;;;;0.60;0.60;;;12.70;99.90;;;;;;5090961;28;20698;-72
2023/07/29 05:12:45;;;;;;;0.50;0.50;;;12.80;99.90;;;;;;5091201;28;20197;-73
2023/07/29 05:15:11;;;;;;;1.35;0.82;;;12.90;99.90;;;;;;5091530;28;20276;-74
2023/07/29 05:17:36;;;;;;;0.70;0.70;;;13.00;99.90;;;;;;5091108;28;20193;-74
2023/07/29 05:20:02;;;;;;;0.47;0.47;;;13.20;99.90;;;;;;5091258;28;20212;-73
2023/07/29 05:22:28;;;;;;;0.50;0.50;;;13.30;99.90;;;;;;5072750;28;20254;-74
2023/07/29 05:24:54;;;;;;;0.32;0.32;;;13.40;99.90;;;;;;5072951;28;20212;-74
2023/07/29 05:27:22;;;;;;;0.60;0.60;;;13.50;99.90;;;;;;5090611;28;20196;-74
2023/07/29 05:29:48;;;;;;;0.47;0.47;;;13.60;99.90;;;;;;5091023;28;20555;-73
2023/07/29 05:32:14;;;;;;;0.60;0.60;;;13.70;99.90;;;;;;5091282;28;20184;-74
2023/07/29 05:34:39;;;;;;;0.45;0.45;;;13.90;99.90;;;;;;5090900;28;20199;-73
2023/07/29 05:37:05;;;;;;;0.60;0.60;;;14.00;99.90;;;;;;5090719;28;20195;-74
2023/07/29 05:39:32;;;;;;;0.40;0.40;;;14.20;99.90;;;;;;5090756;28;20248;-73
2023/07/29 05:41:58;;;;;;;4.03;0.75;;;14.30;99.90;;;;;;5072314;28;20200;-74
2023/07/29 05:44:23;;;;;;;0.60;0.60;;;14.50;99.90;;;;;;5090321;28;20209;-73
2023/07/29 05:46:49;;;;;;;0.30;0.30;;;14.60;99.90;;;;;;5072242;28;20283;-74
2023/07/29 05:49:15;;;;;;;0.50;0.50;;;14.60;99.90;;;;;;5090594;28;20279;-73
2023/07/29 05:51:40;;;;;;;0.50;0.50;;;14.70;99.90;;;;;;5089511;28;20199;-74
2023/07/29 05:54:06;;;;;;;0.63;0.63;;;14.80;99.90;;;;;;5090678;28;20188;-74
2023/07/29 05:56:32;;;;;;;0.57;0.57;;;14.80;99.90;;;;;;5090318;28;20200;-74
2023/07/29 05:58:57;;;;;;;0.40;0.40;;;14.80;99.90;;;;;;5090427;28;20215;-74
2023/07/29 06:01:23;;;;;;;0.40;0.40;;;14.80;99.90;;;;;;5088932;28;20196;-73
2023/07/29 06:03:49;;;;;;;0.73;0.73;;;14.90;99.90;;;;;;5090735;28;20678;-74
2023/07/29 06:06:15;;;;;;;0.50;0.50;;;15.10;99.90;;;;;;5090422;28;20188;-75
2023/07/29 06:08:44;;;;;;;0.40;0.40;;;15.10;99.90;;;;;;5071940;28;20253;-74
2023/07/29 06:11:10;;;;;;;0.80;0.80;;;15.20;99.90;;;;;;5089944;28;20227;-75
2023/07/29 06:13:36;;;;;;;0.40;0.40;;;15.30;99.90;;;;;;5072349;28;20248;-74
2023/07/29 06:16:02;;;;;;;0.40;0.40;;;15.40;99.90;;;;;;5090265;28;20265;-73
2023/07/29 06:18:27;;;;;;;0.40;0.40;;;15.50;99.90;;;;;;5090265;28;20564;-72
2023/07/29 06:20:53;;;;;;;0.50;0.50;;;15.60;99.90;;;;;;5090501;28;20275;-73
2023/07/29 06:23:19;;;;;;;0.40;0.40;;;15.80;99.90;;;;;;5071677;28;20196;-73
2023/07/29 06:25:44;;;;;;;0.68;0.68;;;16.00;99.90;;;;;;5090442;28;20677;-73
2023/07/29 06:28:10;;;;;;;0.40;0.40;;;16.20;99.90;;;;;;5090235;28;20192;-73
2023/07/29 06:30:36;;;;;;;0.30;0.30;;;16.10;99.90;;;;;;5071817;28;20196;-74
2023/07/29 06:33:03;;;;;;;0.77;0.77;;;16.20;99.90;;;;;;5090241;28;20192;-74
2023/07/29 06:35:29;;;;;;;0.30;0.30;;;16.40;99.90;;;;;;5090658;28;20218;-74
2023/07/29 06:37:54;;;;;;;0.88;0.88;;;16.50;99.90;;;;;;5090206;28;20263;-74
2023/07/29 06:40:23;;;;;;;0.60;0.40;;;16.60;99.90;;;;;;5089837;28;20216;-73
2023/07/29 06:42:49;;;;;;;0.40;0.40;;;16.80;99.90;;;;;;5089813;28;20609;-73
2023/07/29 06:45:17;;;;;;;0.52;0.52;;;17.00;99.90;;;;;;5090229;28;20188;-74
2023/07/29 06:47:43;;;;;;;0.35;0.35;;;16.90;99.90;;;;;;5089950;28;20187;-75
2023/07/29 06:50:09;;;;;;;0.50;0.50;;;16.70;99.90;;;;;;5085421;28;20698;-75
2023/07/29 06:52:36;;;;;;;0.63;0.50;;;16.60;99.90;;;;;;5090017;28;20197;-75
2023/07/29 06:55:02;;;;;;;0.60;0.60;;;16.70;99.90;;;;;;5090046;28;20195;-75
2023/07/29 06:57:28;;;;;;;0.55;0.55;;;16.90;99.90;;;;;;5089834;28;20279;-75
2023/07/29 06:59:58;;;;;;;0.30;0.30;;;16.90;99.90;;;;;;5088716;28;20426;-74
2023/07/29 07:02:28;;;;;;;1.10;0.85;;;17.10;99.90;;;;;;5088900;28;20200;-73
2023/07/29 07:04:54;;;;;;;0.30;0.30;;;17.30;99.90;;;;;;5086108;28;20635;-74
2023/07/29 07:07:22;;;;;;;0.70;0.70;;;17.40;99.90;;;;;;5072316;28;20222;-74
2023/07/29 07:09:51;;;;;;;0.20;0.20;;;17.50;99.90;;;;;;5072130;28;20771;-74
2023/07/29 07:12:16;;;;;;;0.28;0.28;;;17.50;99.90;;;;;;5075509;28;20601;-74
2023/07/29 07:14:42;;;;;;;0.45;0.35;;;17.50;99.90;;;;;;5094075;28;20208;-74
2023/07/29 07:17:08;;;;;;;0.30;0.30;;;17.60;99.90;;;;;;5094122;28;20192;-74
2023/07/29 07:19:33;;;;;;;0.47;0.47;;;17.80;99.90;;;;;;5075272;28;20575;-74
2023/07/29 07:21:59;;;;;;;0.30;0.30;;;18.00;99.90;;;;;;5094693;28;20566;-74
2023/07/29 07:24:27;;;;;;;1.63;0.60;;;18.20;99.90;;;;;;5093812;28;20203;-74
2023/07/29 07:26:53;;;;;;;0.70;0.70;;;18.60;99.90;;;;;;5075846;28;20192;-73
2023/07/29 07:29:19;;;;;;;0.28;0.28;;;18.90;99.90;;;;;;5075715;28;20192;-74
2023/07/29 07:31:54;;;;;;;0.30;0.30;;;19.10;99.90;;;;;;5075472;28;20204;-75
2023/07/29 07:34:23;;;;;;;0.30;0.30;;;19.10;99.90;;;;;;5075212;28;20203;-74
2023/07/29 07:36:49;;;;;;;0.40;0.40;;;18.90;99.90;;;;;;5093698;28;20188;-72
2023/07/29 07:39:15;;;;;;;0.50;0.50;;;19.00;99.90;;;;;;5075083;28;20226;-74
2023/07/29 07:41:42;;;;;;;0.30;0.30;;;19.20;99.90;;;;;;5075345;28;20196;-75
2023/07/29 07:44:08;;;;;;;0.38;0.38;;;19.30;99.90;;;;;;5093469;28;20192;-74
2023/07/29 07:46:33;;;;;;;0.30;0.30;;;19.50;99.90;;;;;;5075106;28;20669;-75
2023/07/29 07:48:59;;;;;;;0.20;0.20;;;19.70;99.90;;;;;;5079080;28;20275;-74
2023/07/29 07:51:25;;;;;;;0.30;0.30;;;20.00;99.90;;;;;;5091877;28;20659;-74
2023/07/29 07:53:51;;;;;;;0.47;0.47;;;19.90;99.90;;;;;;5091867;28;20276;-75
2023/07/29 07:56:16;;;;;;;0.30;0.30;;;19.80;99.90;;;;;;5093166;28;20215;-74
2023/07/29 07:58:42;;;;;;;0.47;0.47;;;20.00;99.90;;;;;;5093261;28;20567;-75
2023/07/29 08:01:09;;;;;;;0.25;0.25;;;20.30;99.90;;;;;;5092051;28;20192;-75
2023/07/29 08:03:35;;;;;;;1.00;0.90;;;20.40;99.90;;;;;;5093038;28;20694;-75
2023/07/29 08:06:02;;;;;;;0.28;0.28;;;20.40;99.90;;;;;;5091848;28;20690;-75
2023/07/29 08:08:30;;;;;;;0.55;0.38;;;20.50;99.90;;;;;;5091918;28;20718;-75
2023/07/29 08:10:57;;;;;;;0.30;0.30;;;20.70;99.90;;;;;;5091263;28;20235;-76
2023/07/29 08:13:24;;;;;;;0.30;0.30;;;20.90;99.90;;;;;;5092356;28;20212;-76
2023/07/29 08:15:51;;;;;;;1.13;0.50;;;20.90;99.90;;;;;;5092249;28;20261;-75
2023/07/29 08:18:18;;;;;;;0.60;0.60;;;20.90;99.90;;;;;;5092503;28;20683;-75
2023/07/29 08:20:57;;;;;;;0.40;0.40;;;20.50;99.90;;;;;;5074349;28;20283;-75
2023/07/29 08:23:25;;;;;;;1.30;0.40;;;20.00;99.90;;;;;;5092085;28;20184;-75
2023/07/29 08:25:56;;;;;;;0.30;0.30;;;19.80;99.90;;;;;;5092076;28;20665;-76
2023/07/29 08:28:24;;;;;;;0.45;0.45;;;19.80;99.90;;;;;;5091931;28;20184;-75
2023/07/29 08:30:49;;;;;;;0.90;0.77;;;20.10;99.90;;;;;;5092138;28;20663;-75
2023/07/29 08:33:15;;;;;;;0.25;0.25;;;20.60;99.90;;;;;;5073750;28;20279;-76
2023/07/29 08:35:41;;;;;;;0.20;0.20;;;20.60;99.90;;;;;;5091908;28;20283;-75
2023/07/29 08:38:07;;;;;;;0.98;0.70;;;20.70;99.90;;;;;;5092400;28;20216;-75
2023/07/29 08:40:37;;;;;;;1.27;0.55;;;20.70;99.90;;;;;;5091855;28;20199;-76
2023/07/29 08:43:06;;;;;;;0.25;0.25;;;20.50;99.90;;;;;;5092101;28;20547;-75
2023/07/29 08:45:36;;;;;;;0.20;0.20;;;20.60;99.90;;;;;;5073525;28;20280;-76
2023/07/29 08:48:10;;;;;;;0.38;0.38;;;21.00;99.90;;;;;;5073447;28;20564;-76
2023/07/29 08:50:41;;;;;;;0.30;0.30;;;21.10;99.90;;;;;;5053282;28;20193;-75
2023/07/29 08:53:12;;;;;;;0.82;0.60;;;21.00;99.90;;;;;;5075930;28;20238;-76
2023/07/29 08:55:39;;;;;;;0.80;0.52;;;21.20;99.90;;;;;;5073345;28;20196;-76
2023/07/29 08:58:05;;;;;;;0.40;0.40;;;21.40;99.90;;;;;;5073377;28;20196;-76
2023/07/29 09:00:32;;;;;;;0.98;0.98;;;21.70;99.90;;;;;;5073340;28;20738;-76
2023/07/29 09:03:02;;;;;;;0.57;0.43;;;22.30;99.90;;;;;;5091903;28;20686;-76
2023/07/29 09:05:28;;;;;;;0.80;0.55;;;22.80;99.90;;;;;;5091118;28;20198;-76
2023/07/29 09:07:54;;;;;;;0.20;0.20;;;23.10;99.90;;;;;;5091402;28;20188;-76
2023/07/29 09:10:25;;;;;;;2.92;1.17;;;23.20;99.90;;;;;;5072634;28;20319;-74
2023/07/29 09:12:52;;;;;;;0.98;0.80;;;23.10;99.90;;;;;;5091278;28;20724;-73
2023/07/29 09:15:32;;;;;;;2.75;0.65;;;22.70;99.90;;;;;;5091473;28;20677;-74
2023/07/29 09:17:58;;;;;;;0.35;0.35;;;22.80;99.90;;;;;;5091298;28;20667;-73
2023/07/29 09:20:27;;;;;;;0.55;0.55;;;23.00;99.90;;;;;;5073136;28;20249;-76
2023/07/29 09:23:00;;;;;;;0.47;0.40;;;23.00;99.90;;;;;;5091197;28;20272;-76
2023/07/29 09:25:29;;;;;;;0.30;0.30;;;23.00;99.90;;;;;;5091120;28;20377;-75
2023/07/29 09:28:07;;;;;;;1.10;0.60;;;23.10;99.90;;;;;;5072961;28;20195;-77
2023/07/29 09:30:32;;;;;;;1.38;0.52;;;23.50;99.90;;;;;;5072693;28;20187;-76
2023/07/29 09:32:59;;;;;;;0.20;0.20;;;24.00;99.90;;;;;;5090961;28;20659;-76
2023/07/29 09:35:32;;;;;;;1.27;0.82;;;24.20;99.90;;;;;;5072597;28;20261;-74
2023/07/29 09:37:57;;;;;;;0.38;0.30;;;24.50;99.90;;;;;;5072819;28;20200;-74
2023/07/29 09:40:23;;;;;;;0.60;0.30;;;24.50;99.90;;;;;;5072841;28;20540;-75
2023/07/29 09:42:50;;;;;;;0.40;0.40;;;24.90;99.90;;;;;;5090947;28;20188;-75
2023/07/29 09:45:36;;;;;;;0.50;0.50;;;25.20;99.90;;;;;;5090978;28;20584;-75
2023/07/29 09:48:02;;;;;;;0.52;0.52;;;25.30;99.90;;;;;;5091139;28;20707;-76
2023/07/29 09:50:29;;;;;;;0.93;0.70;;;25.00;99.90;;;;;;5089100;28;20703;-74
2023/07/29 09:52:58;;;;;;;0.43;0.38;;;25.20;99.90;;;;;;5089397;28;20227;-75
2023/07/29 09:55:24;;;;;;;0.65;0.50;;;25.30;99.90;;;;;;5090641;28;20283;-75
2023/07/29 09:58:02;;;;;;;0.55;0.55;;;25.20;99.90;;;;;;5090776;28;20669;-74
2023/07/29 10:00:32;;;;;;;0.38;0.38;;;25.30;99.90;;;;;;5089623;28;20881;-74
2023/07/29 10:02:58;;;;;;;0.22;0.22;;;25.50;99.90;;;;;;5090861;28;20212;-74
2023/07/29 10:05:35;;;;;;;0.40;0.40;;;25.80;99.90;;;;;;5090403;28;20184;-75
2023/07/29 10:08:02;;;;;;;0.38;0.38;;;26.10;99.90;;;;;;5090863;28;20262;-74
2023/07/29 10:10:29;;;;;;;0.63;0.63;;;26.10;99.90;;;;;;5071820;28;20380;-74
2023/07/29 10:12:56;;;;;;;0.10;0.10;;;25.90;99.90;;;;;;5090392;28;20670;-75
2023/07/29 10:15:22;;;;;;;0.28;0.28;;;25.70;99.90;;;;;;5090436;28;20602;-75
2023/07/29 10:17:49;;;;;;;0.25;0.25;;;25.60;99.90;;;;;;5090703;28;20246;-75
2023/07/29 10:20:18;;;;;;;0.50;0.50;;;25.30;99.90;;;;;;5090581;28;20249;-75
2023/07/29 10:22:47;;;;;;;0.40;0.32;;;25.30;99.90;;;;;;5090532;28;20188;-74
2023/07/29 10:25:17;;;;;;;0.98;0.50;;;25.60;99.90;;;;;;5090462;28;20206;-74
2023/07/29 10:27:46;;;;;;;0.15;0.15;;;25.80;99.90;;;;;;5090439;28;20555;-75
2023/07/29 10:30:13;;;;;;;1.02;0.65;;;25.80;99.90;;;;;;5090425;28;20196;-75
2023/07/29 10:32:42;;;;;;;0.70;0.45;;;26.10;99.90;;;;;;5090338;28;20188;-75
2023/07/29 10:35:11;;;;;;;0.20;0.20;;;26.10;99.90;;;;;;5071816;28;20230;-75
2023/07/29 10:37:37;;;;;;;2.00;0.60;;;26.20;99.90;;;;;;5090220;28;20238;-75
2023/07/29 10:40:06;;;;;;;0.55;0.40;;;26.40;99.90;;;;;;5090499;28;20192;-75
2023/07/29 10:42:32;;;;;;;1.60;0.75;;;26.50;99.90;;;;;;5071948;28;20192;-74
2023/07/29 10:44:58;;;;;;;0.93;0.50;;;26.80;99.90;;;;;;5089264;28;20708;-74
2023/07/29 10:47:27;;;;;;;0.20;0.20;;;27.20;99.90;;;;;;5093796;28;20203;-74
2023/07/29 10:49:54;;;;;;;0.35;0.35;;;27.60;99.90;;;;;;5094017;28;20669;-74
2023/07/29 10:52:35;;;;;;;0.45;0.45;;;27.40;99.90;;;;;;5092582;28;20231;-74
2023/07/29 10:55:02;;;;;;;2.67;0.50;;;27.50;99.90;;;;;;5094195;28;20684;-75
2023/07/29 10:57:32;;;;;;;0.93;0.25;;;27.80;99.90;;;;;;5094313;28;20220;-75
2023/07/29 10:59:58;;;;;;;0.28;0.28;;;28.10;99.90;;;;;;5092620;28;20192;-75
2023/07/29 11:02:36;;;;;;;0.40;0.40;;;28.20;99.90;;;;;;5093818;28;20187;-75
2023/07/29 11:05:16;;;;;;;0.47;0.22;;;28.30;99.90;;;;;;5079723;28;20210;-74
2023/07/29 11:07:47;;;;;;;1.40;0.82;;;28.10;99.90;;;;;;5075643;28;20654;-74
2023/07/29 11:10:14;;;;;;;1.00;0.68;;;27.80;99.90;;;;;;5093669;28;20228;-75
2023/07/29 11:12:47;;;;;;;0.20;0.20;;;27.50;99.90;;;;;;5075587;28;20237;-74
2023/07/29 11:15:16;;;;;;;0.10;0.10;;;27.20;99.90;;;;;;5094130;28;20649;-74
2023/07/29 11:17:48;;;;;;;2.10;0.88;;;27.00;99.90;;;;;;5093690;28;20198;-75
2023/07/29 11:20:16;;;;;;;0.63;0.50;;;27.40;99.90;;;;;;5094025;28;20192;-75
2023/07/29 11:22:42;;;;;;;0.38;0.38;;;27.20;99.90;;;;;;5074329;28;20203;-75
2023/07/29 11:25:11;;;;;;;0.30;0.30;;;27.40;99.90;;;;;;5092391;28;20582;-75
2023/07/29 11:27:38;;;;;;;0.10;0.10;;;27.60;99.90;;;;;;5093669;28;20265;-75
2023/07/29 11:30:09;;;;;;;0.20;0.20;;;27.70;99.90;;;;;;5092314;28;20199;-75
2023/07/29 11:32:36;;;;;;;0.43;0.43;;;27.80;99.90;;;;;;5092048;28;20682;-76
2023/07/29 11:35:10;;;;;;;0.47;0.40;;;28.00;99.90;;;;;;5092133;28;20211;-75
2023/07/29 11:37:37;;;;;;;0.30;0.30;;;28.20;99.10;;;;;;5092150;28;20201;-75
2023/07/29 11:40:05;;;;;;;1.25;0.17;;;28.60;99.90;;;;;;5092201;28;20199;-75
2023/07/29 11:42:34;;;;;;;0.22;0.22;;;28.90;99.30;;;;;;5093306;28;20237;-75
2023/07/29 11:45:05;;;;;;;0.35;0.35;;;28.30;99.90;;;;;;5093356;28;20270;-74
2023/07/29 11:47:32;;;;;;;0.22;0.22;;;28.00;99.20;;;;;;5093344;28;20199;-75
2023/07/29 11:50:01;;;;;;;0.52;0.52;;;28.30;99.90;;;;;;5093603;28;20215;-73
2023/07/29 11:52:28;;;;;;;0.22;0.22;;;28.70;99.90;;;;;;5092090;28;20583;-73
2023/07/29 11:54:54;;;;;;;1.02;0.85;;;28.90;98.40;;;;;;5092810;28;20204;-73
2023/07/29 11:57:23;;;;;;;0.45;0.32;;;29.10;97.30;;;;;;5092628;28;20188;-73
2023/07/29 11:59:49;;;;;;;0.30;0.30;;;28.90;97.10;;;;;;5092961;28;20222;-73
2023/07/29 12:02:17;;;;;;;1.40;0.35;;;28.80;98.40;;;;;;5092967;28;20223;-74
2023/07/29 12:04:46;;;;;;;0.47;0.43;;;29.00;98.20;;;;;;5074235;28;20571;-74
2023/07/29 12:07:14;;;;;;;0.40;0.40;;;28.90;96.30;;;;;;5074859;28;20223;-73
2023/07/29 12:09:41;;;;;;;1.77;0.85;;;28.50;95.40;;;;;;5092836;28;20481;-74
2023/07/29 12:12:07;;;;;;;0.60;0.28;;;28.50;97.40;;;;;;5074554;28;20678;-74
2023/07/29 12:14:34;;;;;;;0.65;0.30;;;28.20;99.10;;;;;;5092703;28;20606;-73
2023/07/29 12:17:01;;;;;;;0.25;0.25;;;28.60;97.50;;;;;;5093220;28;20236;-74
2023/07/29 12:19:33;;;;;;;2.22;0.65;;;29.00;96.60;;;;;;5074310;28;20648;-74
2023/07/29 12:21:59;;;;;;;0.10;0.10;;;29.20;95.90;;;;;;5074866;28;20202;-74
2023/07/29 12:24:25;;;;;;;0.75;0.47;;;29.30;97.80;;;;;;5092668;28;20279;-74
2023/07/29 12:26:53;;;;;;;0.20;0.20;;;29.70;96.20;;;;;;5074534;28;20224;-73
2023/07/29 12:29:19;;;;;;;0.57;0.47;;;29.80;96.70;;;;;;5092618;28;20203;-73
2023/07/29 12:31:48;;;;;;;5.38;0.95;;;29.30;95.90;;;;;;5074402;28;20537;-73
2023/07/29 12:34:25;;;;;;;2.08;0.32;;;29.30;97.30;;;;;;5074211;28;20264;-74
2023/07/29 12:36:55;;;;;;;0.20;0.20;;;29.50;97.00;;;;;;5092438;28;20213;-74
2023/07/29 12:39:28;;;;;;;0.35;0.35;;;29.60;96.20;;;;;;5074244;28;20212;-74
2023/07/29 12:41:56;;;;;;;0.30;0.30;;;29.70;96.90;;;;;;5074020;28;20202;-73
2023/07/29 12:44:23;;;;;;;0.20;0.20;;;29.70;95.80;;;;;;5073921;28;20225;-73
2023/07/29 12:46:49;;;;;;;0.20;0.20;;;29.60;95.90;;;;;;5092498;28;20188;-73
2023/07/29 12:49:15;;;;;;;0.40;0.38;;;29.60;97.00;;;;;;5073888;28;20240;-73
2023/07/29 12:51:40;;;;;;;1.95;0.80;;;29.50;95.60;;;;;;5073923;28;20279;-73
2023/07/29 12:54:09;;;;;;;2.45;0.55;;;28.90;95.90;;;;;;5073862;28;20355;-73